Time;durP1;ratioP1;P1;durP2;ratioP2;P2;SDS_P1;SDS_P2;PMS_P1;PMS_P2;Temp;Humidity;BMP_temperature;BMP_pressure;BME280_temperature;BME280_humidity;BME280_pressure;Samples;Min_cycle;Max_cycle;Signal;HPM_P1;HPM_P2
2022/03/28 00:01:00;;;;;;;15.02;6.75;;;;;;;10.66;83.15;102333.75;7383860;19;20036;-64
2022/03/28 00:03:27;;;;;;;15.73;6.45;;;;;;;10.67;82.15;102329.28;7384686;19;20014;-64
2022/03/28 00:05:57;;;;;;;25.10;8.93;;;;;;;10.67;83.54;102324.88;7385298;19;20033;-64
2022/03/28 00:08:25;;;;;;;16.13;6.40;;;;;;;10.65;82.87;102321.53;7388425;19;20082;-63
2022/03/28 00:10:53;;;;;;;14.95;6.20;;;;;;;10.61;82.78;102332.41;7385201;19;20010;-64
2022/03/28 00:13:20;;;;;;;12.57;6.35;;;;;;;10.56;83.01;102316.97;7382448;19;20022;-64
2022/03/28 00:15:47;;;;;;;11.13;5.05;;;;;;;10.57;83.22;102313.34;7383381;19;20463;-63
2022/03/28 00:18:14;;;;;;;19.20;5.95;;;;;;;10.59;83.32;102319.34;7383054;19;20014;-63
2022/03/28 00:20:41;;;;;;;17.25;6.97;;;;;;;10.57;82.73;102323.88;7384769;19;20518;-63
2022/03/28 00:23:07;;;;;;;19.33;8.90;;;;;;;10.60;84.82;102325.47;7381707;19;20013;-63
2022/03/28 00:25:35;;;;;;;19.40;7.32;;;;;;;10.63;85.03;102309.44;7383720;19;20153;-64
2022/03/28 00:28:03;;;;;;;19.70;6.53;;;;;;;10.62;84.99;102318.28;7383176;19;20456;-62
2022/03/28 00:30:30;;;;;;;17.20;5.45;;;;;;;10.59;84.09;102315.88;7382393;19;20547;-63
2022/03/28 00:33:00;;;;;;;22.63;6.97;;;;;;;10.58;84.25;102309.78;7387372;19;20014;-64
2022/03/28 00:35:27;;;;;;;16.05;4.85;;;;;;;10.58;83.75;102308.94;7387871;19;20019;-65
2022/03/28 00:37:54;;;;;;;17.15;8.65;;;;;;;10.55;84.02;102306.56;7384383;19;20022;-63
2022/03/28 00:40:23;;;;;;;17.45;6.20;;;;;;;10.55;83.81;102310.03;7383444;19;20326;-63
2022/03/28 00:42:50;;;;;;;21.83;8.25;;;;;;;10.55;83.72;102317.91;7382915;19;20026;-63
2022/03/28 00:45:18;;;;;;;19.33;5.40;;;;;;;10.50;82.82;102308.69;7381512;19;20672;-63
2022/03/28 00:47:45;;;;;;;15.23;5.00;;;;;;;10.48;82.49;102297.44;7382562;19;20018;-64
2022/03/28 00:50:17;;;;;;;16.02;6.13;;;;;;;10.45;82.82;102297.66;7385624;19;19999;-64
2022/03/28 00:52:44;;;;;;;14.48;5.10;;;;;;;10.39;82.64;102298.97;7382258;19;20467;-63
2022/03/28 00:55:12;;;;;;;18.65;4.78;;;;;;;10.36;82.36;102290.47;7385469;19;20014;-63
2022/03/28 00:57:41;;;;;;;16.83;4.90;;;;;;;10.37;83.88;102292.13;7384602;19;20010;-63
2022/03/28 01:00:12;;;;;;;14.35;4.35;;;;;;;10.35;83.03;102288.78;7386392;19;20320;-63
2022/03/28 01:02:39;;;;;;;14.00;4.90;;;;;;;10.33;82.78;102281.00;7380311;19;20031;-65
2022/03/28 01:05:10;;;;;;;24.25;5.63;;;;;;;10.30;82.73;102273.34;7382087;19;20580;-63
2022/03/28 01:07:39;;;;;;;19.30;5.57;;;;;;;10.27;82.75;102276.19;7383607;19;20038;-63
2022/03/28 01:10:09;;;;;;;18.73;5.32;;;;;;;10.27;83.42;102284.94;7381367;19;20077;-64
2022/03/28 01:12:37;;;;;;;17.00;5.40;;;;;;;10.29;83.15;102279.56;7381945;19;20014;-63
2022/03/28 01:15:07;;;;;;;19.80;7.30;;;;;;;10.26;83.22;102283.25;7381702;19;20703;-64
2022/03/28 01:20:10;;;;;;;16.15;5.35;;;;;;;10.27;83.53;102265.69;7384282;19;20011;-64
2022/03/28 01:22:37;;;;;;;15.30;5.95;;;;;;;10.25;83.14;102265.81;7380734;19;20034;-64
2022/03/28 01:25:06;;;;;;;17.15;4.90;;;;;;;10.27;83.72;102263.03;7381254;19;20342;-63
2022/03/28 01:27:36;;;;;;;15.93;5.75;;;;;;;10.27;83.27;102260.41;7380356;19;20031;-63
2022/03/28 01:30:04;;;;;;;9.57;4.93;;;;;;;10.27;84.16;102258.63;7380455;19;20355;-63
2022/03/28 01:32:32;;;;;;;14.35;5.32;;;;;;;10.26;83.83;102256.09;7379234;19;20757;-64
2022/03/28 01:34:58;;;;;;;18.35;5.88;;;;;;;10.25;83.70;102250.03;7380113;19;20030;-63
2022/03/28 01:37:25;;;;;;;17.95;7.22;;;;;;;10.23;83.69;102246.66;7381158;19;20604;-63
2022/03/28 01:39:52;;;;;;;20.35;7.68;;;;;;;10.21;84.58;102248.56;7379765;19;20021;-64
2022/03/28 01:42:19;;;;;;;17.55;6.28;;;;;;;10.19;84.57;102242.59;7382145;19;20011;-63
2022/03/28 01:44:51;;;;;;;19.00;6.90;;;;;;;10.16;83.99;102245.44;7383542;19;20605;-62
2022/03/28 01:47:18;;;;;;;29.90;9.07;;;;;;;10.15;84.30;102238.50;7382755;19;20352;-64
2022/03/28 01:49:45;;;;;;;22.63;9.57;;;;;;;10.14;84.76;102238.59;7379744;19;20014;-63
2022/03/28 01:52:12;;;;;;;19.55;7.43;;;;;;;10.11;84.79;102226.50;7382891;19;20015;-63
2022/03/28 01:54:39;;;;;;;20.33;7.32;;;;;;;10.09;84.83;102232.84;7379422;19;20006;-63
2022/03/28 01:57:10;;;;;;;24.70;8.48;;;;;;;10.07;84.69;102235.59;7381542;19;20443;-63
2022/03/28 01:59:37;;;;;;;73.88;16.88;;;;;;;10.06;85.36;102225.16;7379115;19;20017;-63
2022/03/28 02:02:04;;;;;;;21.80;7.47;;;;;;;10.04;84.73;102221.84;7379029;19;20532;-63
2022/03/28 02:04:32;;;;;;;26.05;8.20;;;;;;;10.02;84.25;102227.19;7384714;19;20015;-63
2022/03/28 02:06:59;;;;;;;17.25;6.95;;;;;;;9.97;84.29;102221.44;7381587;19;20010;-63
2022/03/28 02:09:26;;;;;;;22.27;8.75;;;;;;;9.93;84.59;102220.00;7390780;19;20162;-63
2022/03/28 02:11:53;;;;;;;21.23;7.57;;;;;;;9.92;84.63;102218.31;7389366;19;20017;-64
2022/03/28 02:14:20;;;;;;;26.90;7.85;;;;;;;9.92;84.72;102223.56;7388101;19;20023;-64
2022/03/28 02:16:47;;;;;;;16.58;6.95;;;;;;;9.87;84.53;102209.94;7385697;19;20010;-64
2022/03/28 02:19:14;;;;;;;17.73;6.65;;;;;;;9.84;84.33;102212.81;7387885;19;20533;-64
2022/03/28 02:21:40;;;;;;;21.40;8.32;;;;;;;9.81;83.42;102213.84;7385759;19;20428;-64
2022/03/28 02:24:07;;;;;;;19.30;7.78;;;;;;;9.84;84.20;102210.19;7387911;19;20014;-64
2022/03/28 02:26:34;;;;;;;18.98;6.93;;;;;;;9.82;83.54;102204.19;7386338;19;20758;-64
2022/03/28 02:29:01;;;;;;;18.23;7.53;;;;;;;9.80;82.82;102206.09;7387192;19;20346;-64
2022/03/28 02:31:28;;;;;;;16.65;6.68;;;;;;;9.77;82.70;102207.16;7387537;19;20014;-63
2022/03/28 02:33:55;;;;;;;17.35;6.18;;;;;;;9.78;83.70;102200.94;7389013;19;20333;-64
2022/03/28 02:36:22;;;;;;;17.90;7.00;;;;;;;9.77;83.04;102199.25;7385969;19;20014;-64
2022/03/28 02:38:49;;;;;;;22.75;9.43;;;;;;;9.79;83.63;102202.63;7387465;19;20718;-63
2022/03/28 02:41:16;;;;;;;18.13;8.50;;;;;;;9.80;83.33;102200.84;7386034;19;20026;-63
2022/03/28 02:43:43;;;;;;;22.67;8.25;;;;;;;9.80;82.66;102206.09;7382585;19;20021;-63
2022/03/28 02:46:10;;;;;;;23.10;7.60;;;;;;;9.74;83.10;102194.25;7388970;19;20010;-64
2022/03/28 02:48:37;;;;;;;17.88;8.13;;;;;;;9.71;83.40;102191.84;7387383;19;20023;-64
2022/03/28 02:51:04;;;;;;;23.85;9.20;;;;;;;9.68;83.10;102189.44;7385295;19;20486;-64
2022/03/28 02:53:31;;;;;;;18.30;8.30;;;;;;;9.67;83.19;102190.38;7389126;19;20325;-63
2022/03/28 02:55:59;;;;;;;20.48;7.93;;;;;;;9.66;83.40;102185.22;7387162;19;20014;-64
2022/03/28 02:58:26;;;;;;;18.60;7.82;;;;;;;9.66;83.20;102186.06;7384911;19;20025;-64
2022/03/28 03:00:53;;;;;;;22.88;9.13;;;;;;;9.64;82.92;102181.91;7386562;19;20134;-64
2022/03/28 03:03:20;;;;;;;19.98;9.32;;;;;;;9.61;83.18;102180.31;7384647;19;20471;-64
2022/03/28 03:05:49;;;;;;;23.98;8.88;;;;;;;9.57;82.94;102168.38;7384144;19;20346;-63
2022/03/28 03:08:16;;;;;;;17.70;7.93;;;;;;;9.60;82.48;102176.00;7388850;19;20503;-64
2022/03/28 03:10:44;;;;;;;22.90;9.23;;;;;;;9.55;82.69;102169.44;7385512;19;20022;-63
2022/03/28 03:13:11;;;;;;;20.67;9.55;;;;;;;9.48;83.05;102170.84;7386727;19;20025;-63
2022/03/28 03:15:38;;;;;;;22.65;10.32;;;;;;;9.43;83.12;102161.50;7388630;19;20003;-64
2022/03/28 03:18:05;;;;;;;25.08;10.02;;;;;;;9.36;83.19;102170.78;7386378;19;20010;-64
2022/03/28 03:20:35;;;;;;;19.05;8.50;;;;;;;9.31;83.49;102157.13;7382492;19;20531;-64
2022/03/28 03:23:02;;;;;;;21.10;8.73;;;;;;;9.26;83.16;102151.38;7389015;19;20409;-64
2022/03/28 03:25:29;;;;;;;16.70;8.00;;;;;;;9.22;83.71;102151.72;7385996;19;20018;-64
2022/03/28 03:27:57;;;;;;;21.65;8.68;;;;;;;9.24;83.77;102153.31;7384549;19;20311;-64
2022/03/28 03:30:24;;;;;;;18.38;8.05;;;;;;;9.24;83.33;102145.41;7385424;19;20446;-63
2022/03/28 03:32:54;;;;;;;23.90;7.70;;;;;;;9.27;83.33;102144.34;7386113;19;20010;-66
2022/03/28 03:35:23;;;;;;;16.95;7.35;;;;;;;9.27;82.53;102152.22;7384385;19;20010;-64
2022/03/28 03:37:50;;;;;;;17.52;6.82;;;;;;;9.28;81.93;102151.28;7387572;19;20003;-63
2022/03/28 03:40:17;;;;;;;19.42;8.07;;;;;;;9.30;81.63;102150.19;7383496;19;20760;-63
2022/03/28 03:42:44;;;;;;;22.25;6.90;;;;;;;9.28;81.50;102151.28;7383111;19;20017;-63
2022/03/28 03:45:11;;;;;;;14.13;6.55;;;;;;;9.25;81.69;102144.44;7383322;19;20014;-64
2022/03/28 03:47:38;;;;;;;15.50;6.70;;;;;;;9.25;81.48;102138.34;7383207;19;20025;-64
2022/03/28 03:50:05;;;;;;;17.30;7.00;;;;;;;9.24;81.88;102139.31;7386735;19;20013;-63
2022/03/28 03:52:33;;;;;;;17.00;7.00;;;;;;;9.24;81.62;102131.44;7383425;19;20146;-63
2022/03/28 03:54:59;;;;;;;16.08;6.40;;;;;;;9.22;81.43;102128.94;7385396;19;20474;-64
2022/03/28 03:57:26;;;;;;;15.00;6.88;;;;;;;9.24;82.41;102124.41;7387382;19;20078;-62
2022/03/28 03:59:53;;;;;;;14.82;6.43;;;;;;;9.24;81.20;102119.16;7382829;19;20106;-63
2022/03/28 04:02:24;;;;;;;19.38;6.32;;;;;;;9.23;80.45;102127.13;7381417;19;20031;-62
2022/03/28 04:04:51;;;;;;;15.70;5.40;;;;;;;9.24;80.42;102126.19;7382489;19;20071;-64
2022/03/28 04:07:18;;;;;;;19.08;5.93;;;;;;;9.23;78.82;102130.59;7385185;19;20007;-63
2022/03/28 04:09:45;;;;;;;18.55;5.30;;;;;;;9.21;78.66;102121.16;7386016;19;20355;-63
2022/03/28 04:12:12;;;;;;;13.75;4.88;;;;;;;9.20;78.17;102122.94;7386832;19;20014;-63
2022/03/28 04:14:40;;;;;;;17.60;5.32;;;;;;;9.16;77.72;102116.25;7386173;19;20022;-63
2022/03/28 04:17:07;;;;;;;13.60;4.90;;;;;;;9.07;77.60;102118.69;7383482;19;20716;-64
2022/03/28 04:19:34;;;;;;;14.25;4.63;;;;;;;9.00;77.92;102128.78;7384741;19;20022;-63
2022/03/28 04:22:01;;;;;;;13.20;4.10;;;;;;;8.97;77.91;102121.16;7384788;19;20025;-64
2022/03/28 04:24:28;;;;;;;13.77;4.03;;;;;;;8.93;78.25;102122.31;7384047;19;20498;-63
2022/03/28 04:26:55;;;;;;;11.38;3.80;;;;;;;8.91;78.05;102121.59;7384286;19;20014;-64
2022/03/28 04:29:21;;;;;;;11.00;4.22;;;;;;;8.89;78.39;102120.84;7384299;19;20655;-64
2022/03/28 04:31:48;;;;;;;12.02;4.90;;;;;;;8.88;78.43;102120.03;7381887;19;20010;-63
2022/03/28 04:34:15;;;;;;;12.90;6.07;;;;;;;8.85;79.42;102122.84;7384054;19;20018;-63
2022/03/28 04:36:42;;;;;;;13.20;5.22;;;;;;;8.83;79.28;102108.19;7381784;19;20030;-63
2022/03/28 04:39:09;;;;;;;12.27;5.65;;;;;;;8.86;80.38;102115.81;7386854;19;20018;-63
2022/03/28 04:41:41;;;;;;;16.60;6.25;;;;;;;8.88;80.91;102121.81;7384236;19;20015;-64
2022/03/28 04:44:08;;;;;;;14.85;6.40;;;;;;;8.90;80.36;102112.88;7380388;19;20026;-63
2022/03/28 04:46:35;;;;;;;17.85;6.50;;;;;;;8.92;81.95;102116.22;7384124;19;20014;-63
2022/03/28 04:49:02;;;;;;;15.40;6.07;;;;;;;8.94;81.75;102111.69;7382464;19;20022;-63
2022/03/28 04:51:29;;;;;;;17.60;5.72;;;;;;;8.95;81.31;102120.41;7381180;19;20010;-63
2022/03/28 04:53:56;;;;;;;16.27;6.03;;;;;;;8.94;81.82;102113.47;7382338;19;20021;-64
2022/03/28 04:56:23;;;;;;;17.02;6.43;;;;;;;8.92;81.16;102112.78;7383413;19;20102;-64
2022/03/28 04:58:50;;;;;;;15.60;5.82;;;;;;;8.89;81.01;102112.97;7383829;19;20027;-64
2022/03/28 05:01:17;;;;;;;15.73;5.78;;;;;;;8.89;80.18;102113.81;7381208;19;20011;-64
2022/03/28 05:03:44;;;;;;;19.90;7.35;;;;;;;8.87;80.15;102107.84;7379593;19;20030;-64
2022/03/28 05:06:11;;;;;;;23.05;6.13;;;;;;;8.85;79.76;102109.75;7381360;19;20010;-63
2022/03/28 05:08:40;;;;;;;18.02;6.25;;;;;;;8.83;79.48;102106.41;7386074;19;20487;-63
2022/03/28 05:11:09;;;;;;;20.38;6.80;;;;;;;8.81;80.66;102100.41;7386451;19;20015;-64
2022/03/28 05:13:35;;;;;;;16.25;7.30;;;;;;;8.80;80.46;102101.34;7383285;19;20019;-63
2022/03/28 05:16:03;;;;;;;18.27;7.63;;;;;;;8.78;80.75;102099.81;7384251;19;20029;-63
2022/03/28 05:18:30;;;;;;;25.38;7.95;;;;;;;8.75;81.17;102098.22;7383959;19;20029;-64
2022/03/28 05:20:57;;;;;;;26.65;8.73;;;;;;;8.75;81.75;102094.75;7383451;19;20011;-63
2022/03/28 05:23:24;;;;;;;25.42;8.75;;;;;;;8.75;82.55;102087.72;7379724;19;20025;-63
2022/03/28 05:25:51;;;;;;;29.02;8.80;;;;;;;8.76;83.68;102092.03;7381019;19;20013;-64
2022/03/28 05:28:18;;;;;;;23.30;8.82;;;;;;;8.69;83.32;102088.16;7381608;19;20262;-64
2022/03/28 05:30:45;;;;;;;28.60;11.07;;;;;;;8.69;83.59;102090.78;7386058;19;20030;-64
2022/03/28 05:33:12;;;;;;;20.80;8.73;;;;;;;8.72;83.83;102090.59;7384016;19;20007;-64
2022/03/28 05:35:42;;;;;;;28.88;9.32;;;;;;;8.73;83.21;102092.25;7380715;19;20007;-65
2022/03/28 05:38:11;;;;;;;23.38;9.70;;;;;;;8.74;83.34;102093.06;7382042;19;20014;-64
2022/03/28 05:40:39;;;;;;;24.40;9.48;;;;;;;8.74;82.86;102090.44;7378471;19;20011;-64
2022/03/28 05:43:09;;;;;;;28.13;12.18;;;;;;;8.76;83.81;102091.19;7383774;19;20035;-63
2022/03/28 05:45:39;;;;;;;24.42;10.70;;;;;;;8.77;85.19;102088.47;7387555;19;20003;-62
2022/03/28 05:48:08;;;;;;;29.48;12.18;;;;;;;8.82;85.38;102088.13;7388676;19;20642;-64
2022/03/28 05:50:35;;;;;;;28.85;10.60;;;;;;;8.82;84.77;102085.50;7391895;19;20018;-63
2022/03/28 05:53:03;;;;;;;30.52;11.45;;;;;;;8.87;85.16;102083.38;7391670;19;20185;-63
2022/03/28 05:55:30;;;;;;;28.80;10.85;;;;;;;8.87;85.03;102072.91;7387887;19;20011;-64
2022/03/28 05:57:57;;;;;;;24.38;9.85;;;;;;;8.81;84.92;102084.66;7387259;19;20026;-63
2022/03/28 06:00:24;;;;;;;30.60;10.18;;;;;;;8.77;84.51;102087.63;7386772;19;20092;-65
2022/03/28 06:02:55;;;;;;;27.67;11.50;;;;;;;8.75;84.92;102081.63;7387742;19;20428;-64
2022/03/28 06:05:23;;;;;;;25.05;9.00;;;;;;;8.67;84.04;102079.56;7391601;19;20034;-64
2022/03/28 06:07:50;;;;;;;31.80;10.30;;;;;;;8.69;84.27;102079.44;7390006;19;20074;-64
2022/03/28 06:10:17;;;;;;;21.85;8.75;;;;;;;8.66;84.26;102087.53;7386223;19;20126;-64
2022/03/28 06:12:47;;;;;;;25.75;8.98;;;;;;;8.67;83.75;102082.19;7390730;19;20075;-64
2022/03/28 06:15:17;;;;;;;28.33;10.25;;;;;;;8.72;84.00;102080.09;7387809;19;20022;-64
2022/03/28 06:17:44;;;;;;;30.50;9.38;;;;;;;8.78;83.33;102084.06;7386778;19;20018;-63
2022/03/28 06:20:12;;;;;;;25.80;10.55;;;;;;;8.80;83.11;102074.28;7391441;19;20015;-63
2022/03/28 06:22:39;;;;;;;25.67;9.45;;;;;;;8.86;83.11;102073.84;7387984;19;20148;-64
2022/03/28 06:25:08;;;;;;;29.83;11.15;;;;;;;8.81;83.57;102068.09;7384387;19;20031;-65
2022/03/28 06:27:55;;;;;;;27.92;10.57;;;;;;;8.82;83.52;102065.34;7387742;19;20014;-63
2022/03/28 06:30:21;;;;;;;32.75;11.70;;;;;;;8.85;84.08;102069.53;7390594;19;20606;-64
2022/03/28 06:32:48;;;;;;;35.85;11.65;;;;;;;8.83;84.18;102064.41;7387224;19;20432;-63
2022/03/28 06:35:15;;;;;;;37.47;13.02;;;;;;;8.85;83.87;102070.38;7388242;19;20050;-63
2022/03/28 06:37:42;;;;;;;29.45;13.75;;;;;;;8.91;83.98;102071.72;7388865;19;20049;-63
2022/03/28 06:40:10;;;;;;;32.72;13.27;;;;;;;8.95;84.88;102063.50;7384612;19;20018;-64
2022/03/28 06:42:41;;;;;;;31.02;12.30;;;;;;;8.99;84.43;102062.31;7390715;19;20014;-64
2022/03/28 06:45:10;;;;;;;35.80;14.32;;;;;;;9.07;84.84;102066.19;7383932;19;20506;-64
2022/03/28 06:47:38;;;;;;;34.38;13.35;;;;;;;9.12;83.94;102059.66;7386339;19;20010;-64
2022/03/28 06:50:07;;;;;;;41.13;13.50;;;;;;;9.16;84.24;102063.72;7389205;19;20010;-63
2022/03/28 06:52:35;;;;;;;26.20;12.05;;;;;;;9.15;84.24;102062.03;7386181;19;20015;-63
2022/03/28 06:55:03;;;;;;;32.67;13.73;;;;;;;9.22;83.69;102055.41;7383120;19;20024;-63
2022/03/28 06:57:30;;;;;;;35.25;14.80;;;;;;;9.27;84.22;102053.28;7385317;19;20029;-64
2022/03/28 06:59:58;;;;;;;39.88;16.52;;;;;;;9.35;84.38;102057.94;7391575;19;20038;-64
2022/03/28 07:02:25;;;;;;;35.58;15.13;;;;;;;9.41;84.80;102044.34;7386741;19;20018;-64
2022/03/28 07:04:52;;;;;;;37.00;15.00;;;;;;;9.49;84.34;102042.00;7384805;19;20232;-63
2022/03/28 07:07:19;;;;;;;35.05;15.57;;;;;;;9.54;83.37;102045.13;7387315;19;20019;-63
2022/03/28 07:09:46;;;;;;;36.45;13.93;;;;;;;9.56;82.72;102044.97;7388566;19;20015;-63
2022/03/28 07:12:13;;;;;;;32.22;12.63;;;;;;;9.61;82.64;102046.31;7388366;19;20464;-65
2022/03/28 07:14:40;;;;;;;32.33;12.35;;;;;;;9.70;81.19;102032.47;7385056;19;20015;-64
2022/03/28 07:17:07;;;;;;;28.92;13.55;;;;;;;9.94;80.13;102042.91;7385007;19;20014;-65
2022/03/28 07:19:34;;;;;;;26.40;12.50;;;;;;;10.24;78.96;102043.19;7388428;19;20467;-64
2022/03/28 07:22:03;;;;;;;26.67;11.55;;;;;;;10.34;77.89;102039.81;7384719;19;20122;-63
2022/03/28 07:24:30;;;;;;;29.33;11.07;;;;;;;10.49;76.63;102046.50;7385602;19;20015;-64
2022/03/28 07:26:57;;;;;;;23.75;9.63;;;;;;;10.60;76.67;102043.84;7387621;19;20046;-63
2022/03/28 07:29:24;;;;;;;27.88;9.25;;;;;;;10.71;75.60;102044.69;7388499;19;20045;-64
2022/03/28 07:31:54;;;;;;;24.13;8.90;;;;;;;10.82;76.14;102048.25;7383973;19;20038;-64
2022/03/28 07:36:59;;;;;;;30.33;13.30;;;;;;;10.99;74.51;102040.63;7382980;19;20043;-63
2022/03/28 07:39:26;;;;;;;18.13;8.80;;;;;;;11.04;73.70;102034.97;7381375;19;20038;-62
2022/03/28 07:41:53;;;;;;;23.95;9.88;;;;;;;11.05;72.50;102034.84;7386894;19;20042;-63
2022/03/28 07:44:22;;;;;;;25.08;10.70;;;;;;;11.02;72.48;102031.66;7385627;19;20038;-64
2022/03/28 07:46:50;;;;;;;20.65;8.90;;;;;;;11.08;72.04;102028.50;7385810;19;20031;-64
2022/03/28 07:49:17;;;;;;;22.80;9.05;;;;;;;11.10;72.17;102035.31;7384026;19;20505;-63
2022/03/28 07:51:45;;;;;;;29.65;12.13;;;;;;;11.17;72.66;102029.56;7383466;19;20014;-63
2022/03/28 07:54:15;;;;;;;35.17;13.13;;;;;;;11.19;73.95;102019.69;7383394;19;20336;-64
2022/03/28 07:56:45;;;;;;;33.47;14.10;;;;;;;11.36;74.16;102027.06;7386877;19;20473;-65
2022/03/28 07:59:16;;;;;;;34.28;14.57;;;;;;;11.47;73.94;102027.00;7383067;19;20734;-65
2022/03/28 08:01:43;;;;;;;39.65;17.52;;;;;;;11.53;74.96;102026.47;7385290;19;20007;-64
2022/03/28 08:04:11;;;;;;;39.33;16.52;;;;;;;11.63;74.59;102029.97;7387124;19;20019;-64
2022/03/28 08:06:38;;;;;;;44.78;18.05;;;;;;;11.70;74.87;102017.13;7384301;19;20026;-64
2022/03/28 08:09:06;;;;;;;43.45;18.08;;;;;;;12.10;76.98;102022.47;7382744;19;20349;-64
2022/03/28 08:11:36;;;;;;;45.03;18.20;;;;;;;12.44;75.82;102021.22;7384205;19;20080;-65
2022/03/28 08:14:04;;;;;;;39.55;19.08;;;;;;;12.36;72.98;102015.78;7383135;19;20403;-63
2022/03/28 08:16:32;;;;;;;45.30;19.13;;;;;;;12.36;73.70;102016.59;7386652;19;20042;-64
2022/03/28 08:18:59;;;;;;;44.92;20.30;;;;;;;12.24;74.09;102015.03;7385710;19;20167;-64
2022/03/28 08:21:26;;;;;;;51.92;21.42;;;;;;;12.21;74.46;102023.22;7382818;19;20103;-64
2022/03/28 08:23:54;;;;;;;48.53;19.42;;;;;;;12.11;74.20;102025.00;7382434;19;20014;-65
2022/03/28 08:26:25;;;;;;;48.70;19.90;;;;;;;12.05;74.26;102019.41;7382172;19;20014;-63
2022/03/28 08:28:53;;;;;;;44.13;18.50;;;;;;;11.97;74.60;102013.00;7384484;19;20034;-63
2022/03/28 08:31:20;;;;;;;39.53;17.60;;;;;;;11.97;74.92;102009.53;7382481;19;20027;-64
2022/03/28 08:33:47;;;;;;;50.97;20.88;;;;;;;11.90;75.17;102005.75;7381705;19;20026;-63
2022/03/28 08:36:14;;;;;;;46.67;19.10;;;;;;;11.84;75.28;102007.09;7381852;19;20156;-64
2022/03/28 08:38:41;;;;;;;47.17;18.63;;;;;;;11.76;75.62;102000.81;7384878;19;20031;-63
2022/03/28 08:41:14;;;;;;;41.38;17.42;;;;;;;11.73;76.17;101996.66;7380048;19;20014;-63
2022/03/28 08:43:41;;;;;;;43.92;18.02;;;;;;;11.70;75.90;101993.41;7385624;19;20006;-63
2022/03/28 08:46:15;;;;;;;42.92;18.83;;;;;;;11.72;75.54;101986.22;7385795;19;20014;-63
2022/03/28 08:48:43;;;;;;;45.45;19.58;;;;;;;11.77;75.24;101978.78;7382732;19;20078;-65
2022/03/28 08:51:12;;;;;;;38.42;16.05;;;;;;;11.66;74.60;101984.94;7382281;19;20353;-65
2022/03/28 08:53:40;;;;;;;44.08;19.80;;;;;;;11.66;75.29;101976.19;7382005;19;20402;-63
2022/03/28 08:56:08;;;;;;;36.85;17.00;;;;;;;11.71;74.37;101972.19;7383571;19;20014;-65
2022/03/28 08:58:56;;;;;;;35.00;15.85;;;;;;;11.78;75.73;101977.81;7382120;19;20090;-64
2022/03/28 09:01:24;;;;;;;45.78;20.15;;;;;;;11.77;75.10;101973.50;7381777;19;20034;-64
2022/03/28 09:03:51;;;;;;;43.03;19.92;;;;;;;11.84;74.49;101980.72;7381669;19;20006;-64
2022/03/28 09:06:30;;;;;;;42.97;18.08;;;;;;;11.89;73.89;101988.25;7382729;19;20468;-63
2022/03/28 09:09:17;;;;;;;43.47;19.63;;;;;;;11.92;74.47;101986.19;7386665;19;20018;-64
2022/03/28 09:11:53;;;;;;;47.80;19.25;;;;;;;11.84;73.51;101980.72;7387841;19;20523;-65
2022/03/28 09:14:24;;;;;;;47.83;19.23;;;;;;;11.91;73.50;101975.78;7382152;19;20111;-65
2022/03/28 09:17:04;;;;;;;50.28;20.00;;;;;;;11.95;73.95;101978.00;7380548;19;20030;-64
2022/03/28 09:19:41;;;;;;;44.17;18.13;;;;;;;12.06;72.64;101974.44;7383489;19;20014;-64
2022/03/28 09:22:10;;;;;;;41.50;17.55;;;;;;;12.10;72.61;101969.72;7383510;19;20042;-64
2022/03/28 09:24:37;;;;;;;38.80;17.63;;;;;;;12.12;73.27;101973.06;7381864;19;20512;-64
2022/03/28 09:27:16;;;;;;;42.25;16.92;;;;;;;12.14;71.94;101969.31;7383116;19;20027;-64
2022/03/28 09:30:03;;;;;;;38.17;17.48;;;;;;;12.13;71.53;101964.19;7384274;19;20094;-64
2022/03/28 09:32:32;;;;;;;49.30;16.15;;;;;;;12.15;71.30;101968.34;7382786;19;20027;-64
2022/03/28 09:35:12;;;;;;;43.00;17.10;;;;;;;12.15;71.68;101955.16;7380832;19;20006;-64
2022/03/28 09:37:48;;;;;;;41.28;16.27;;;;;;;12.21;71.39;101953.78;7382308;19;20038;-65
2022/03/28 09:40:27;;;;;;;47.30;18.10;;;;;;;12.30;71.42;101963.50;7380160;19;20007;-64
2022/03/28 09:43:01;;;;;;;47.30;17.65;;;;;;;12.38;70.88;101971.59;7383863;19;20022;-64
2022/03/28 09:45:32;;;;;;;40.13;16.63;;;;;;;12.41;70.26;101963.41;7383949;19;20084;-64
2022/03/28 09:48:06;;;;;;;38.63;15.20;;;;;;;12.40;71.03;101959.09;7382671;19;20019;-64
2022/03/28 09:50:41;;;;;;;44.83;19.05;;;;;;;12.44;71.70;101955.22;7385421;19;20086;-65
2022/03/28 09:53:13;;;;;;;47.58;18.90;;;;;;;12.43;71.80;101966.75;7379643;19;20017;-64
2022/03/28 09:55:46;;;;;;;55.33;20.92;;;;;;;12.51;72.66;101958.97;7383575;19;20009;-64
2022/03/28 09:58:38;;;;;;;56.63;21.05;;;;;;;12.56;72.51;101966.47;7384135;19;20026;-66
2022/03/28 10:01:08;;;;;;;55.50;21.45;;;;;;;12.64;72.69;101959.56;7380735;19;20050;-64
2022/03/28 10:03:36;;;;;;;55.75;22.15;;;;;;;12.64;73.14;101959.56;7383391;19;20013;-63
2022/03/28 10:06:07;;;;;;;49.90;20.83;;;;;;;12.64;72.23;101959.56;7378345;19;20065;-65
2022/03/28 10:08:36;;;;;;;49.75;19.98;;;;;;;12.74;71.45;101951.63;7385872;19;20022;-64
2022/03/28 10:11:05;;;;;;;40.72;17.95;;;;;;;12.75;69.78;101948.00;7382637;19;20014;-63
2022/03/28 10:13:33;;;;;;;46.20;18.70;;;;;;;12.75;69.79;101950.63;7381503;19;20086;-65
2022/03/28 10:16:02;;;;;;;44.28;18.02;;;;;;;12.75;70.55;101946.19;7380345;19;20038;-63
2022/03/28 10:18:31;;;;;;;43.45;17.52;;;;;;;12.77;69.40;101940.78;7380859;19;20122;-64
2022/03/28 10:21:03;;;;;;;41.53;17.52;;;;;;;12.68;70.18;101942.47;7382433;19;20015;-65
2022/03/28 10:23:55;;;;;;;49.78;19.10;;;;;;;12.71;70.61;101943.97;7380988;19;20022;-64
2022/03/28 10:26:29;;;;;;;44.72;17.10;;;;;;;12.71;71.35;101938.69;7381990;19;20031;-63
2022/03/28 10:29:11;;;;;;;47.35;16.50;;;;;;;12.76;69.02;101932.03;7385501;19;20006;-64
2022/03/28 10:31:58;;;;;;;48.28;18.25;;;;;;;12.79;70.14;101937.03;7389850;19;20151;-64
2022/03/28 10:34:46;;;;;;;44.50;15.80;;;;;;;12.88;70.21;101937.16;7386502;19;20034;-63
2022/03/28 10:37:29;;;;;;;39.67;15.75;;;;;;;12.90;69.95;101928.09;7388621;19;20037;-63
2022/03/28 10:40:16;;;;;;;48.80;16.67;;;;;;;12.92;70.21;101927.97;7385118;19;20023;-64
2022/03/28 10:42:47;;;;;;;41.30;15.68;;;;;;;12.98;70.12;101925.63;7390945;19;20530;-63
2022/03/28 10:45:19;;;;;;;40.97;15.05;;;;;;;12.92;68.60;101925.34;7386408;19;20014;-63
2022/03/28 10:47:54;;;;;;;36.40;13.98;;;;;;;12.94;68.29;101920.75;7386097;19;20106;-63
2022/03/28 10:50:33;;;;;;;38.05;14.90;;;;;;;13.01;69.13;101904.19;7388927;19;20341;-64
2022/03/28 10:53:12;;;;;;;40.42;14.02;;;;;;;13.05;69.08;101900.31;7385814;19;20111;-64
2022/03/28 10:55:47;;;;;;;36.70;13.02;;;;;;;13.11;67.21;101915.59;7388244;19;20023;-63
2022/03/28 10:58:21;;;;;;;34.17;14.63;;;;;;;13.10;67.71;101907.81;7385287;19;20301;-63
2022/03/28 11:01:07;;;;;;;34.83;14.18;;;;;;;13.09;67.34;101912.25;7388407;19;20011;-64
2022/03/28 11:03:38;;;;;;;32.13;14.07;;;;;;;13.17;66.34;101904.47;7385940;19;20757;-63
2022/03/28 11:06:06;;;;;;;39.00;16.58;;;;;;;13.15;67.08;101890.59;7383903;19;20044;-63
2022/03/28 11:08:39;;;;;;;37.15;12.77;;;;;;;13.17;67.01;101891.25;7390477;19;20029;-64
2022/03/28 11:11:20;;;;;;;34.20;13.07;;;;;;;13.11;67.04;101878.59;7387704;19;20011;-67
2022/03/28 11:13:58;;;;;;;31.98;14.30;;;;;;;13.12;68.13;101887.38;7385627;19;20092;-63
2022/03/28 11:16:39;;;;;;;41.20;12.95;;;;;;;13.20;67.04;101876.94;7387955;19;20535;-63
2022/03/28 11:19:20;;;;;;;31.08;11.77;;;;;;;13.25;66.73;101878.16;7388598;19;20025;-64
2022/03/28 11:22:08;;;;;;;32.08;11.82;;;;;;;13.31;66.30;101868.00;7386667;19;20111;-64
2022/03/28 11:24:48;;;;;;;26.23;11.02;;;;;;;13.37;66.52;101864.75;7385409;19;20034;-64
2022/03/28 11:27:17;;;;;;;35.60;12.40;;;;;;;13.42;66.01;101860.69;7388491;19;20010;-64
2022/03/28 11:29:45;;;;;;;33.40;11.65;;;;;;;13.46;64.68;101867.34;7390959;19;20503;-64
2022/03/28 11:32:15;;;;;;;34.90;12.20;;;;;;;13.43;65.05;101856.25;7386981;19;20038;-64